Carthage, Tennessee
Current Conditions -  °F | °C
As of 4:15 PM on Wednesday 28 Jan 2015 (Local Time) from KSRB Reporting Station
Clear Clear  
Wind Chill: 46°   Ceiling: Unl
Heat Index: 48°   Visibility: 10mi
Dew Point: 23°   Wind: 5mph
Humidity: 37%   Direction: 230°SW
Pressure: 30.21"   Gusts: NA
Location:  36.25°N, 85.95°W
Report Text: KSRB 282215Z AUTO 23004KT 10SM CLR 09/M05 A3021 RMK
Loading
Personal Weather Stations






























Interactive Weather Map New forecast layout! Learn more

10-Day Weather Forecast

Advertisements
Track Severe Weather on mobile